YV2235 SVMG-SVCU
Flight info
| Callsign | YV2235 |
|---|---|
| Flight time | 0h 13m |
| Altitude | 5500 |
| Route | DCT |
| Aircraft | BE60/L-SDCFG/C |
Departure
| Time | 2026-05-08 21:49 |
|---|---|
| Airport | Del Caribe Santiago Mariño International Airport (SVMG) |
Arrival
| Time | 2026-05-08 22:03 |
|---|---|
| Airport | Antonio José de Sucre Airport (SVCU) |
| Time | Latitude | Longitude | Altitude | Speed | Heading |
|---|---|---|---|---|---|
| 2026-05-08 21:45 | 10.91482 | -63.97096 | 79 ft | 0 kts | 78° |
| 2026-05-08 21:47 | 10.91482 | -63.97093 | 79 ft | 2 kts | 98° |
| 2026-05-08 21:47 | 10.91450 | -63.97051 | 79 ft | 14 kts | 109° |
| 2026-05-08 21:47 | 10.91356 | -63.97017 | 79 ft | 22 kts | 205° |
| 2026-05-08 21:47 | 10.91308 | -63.97120 | 79 ft | 9 kts | 224° |
| 2026-05-08 21:48 | 10.91273 | -63.97123 | 79 ft | 5 kts | 179° |
| 2026-05-08 21:48 | 10.91238 | -63.97119 | 79 ft | 9 kts | 168° |
| 2026-05-08 21:48 | 10.91199 | -63.96986 | 79 ft | 52 kts | 81° |
| 2026-05-08 21:48 | 10.91305 | -63.96411 | 151 ft | 105 kts | 80° |
| 2026-05-08 21:49 | 10.91476 | -63.95539 | 404 ft | 140 kts | 78° |
| 2026-05-08 21:49 | 10.91451 | -63.94492 | 722 ft | 160 kts | 113° |
| 2026-05-08 21:49 | 10.90670 | -63.93738 | 1035 ft | 171 kts | 158° |
| 2026-05-08 21:49 | 10.89671 | -63.93701 | 1299 ft | 171 kts | 197° |
| 2026-05-08 21:50 | 10.88772 | -63.94416 | 1614 ft | 162 kts | 233° |
| 2026-05-08 21:50 | 10.88192 | -63.95378 | 1915 ft | 156 kts | 242° |
| 2026-05-08 21:50 | 10.87702 | -63.96350 | 2209 ft | 153 kts | 242° |
| 2026-05-08 21:50 | 10.87169 | -63.97188 | 2485 ft | 150 kts | 231° |
| 2026-05-08 21:51 | 10.86512 | -63.97866 | 2754 ft | 149 kts | 219° |
| 2026-05-08 21:51 | 10.85665 | -63.98451 | 3052 ft | 148 kts | 210° |
| 2026-05-08 21:51 | 10.84730 | -63.98921 | 3395 ft | 150 kts | 204° |
| 2026-05-08 21:51 | 10.83761 | -63.99319 | 3771 ft | 151 kts | 201° |
| 2026-05-08 21:52 | 10.82763 | -63.99684 | 4146 ft | 153 kts | 200° |
| 2026-05-08 21:52 | 10.81749 | -64.00046 | 4523 ft | 155 kts | 201° |
| 2026-05-08 21:52 | 10.80740 | -64.00408 | 4896 ft | 157 kts | 202° |
| 2026-05-08 21:52 | 10.79708 | -64.00777 | 5273 ft | 158 kts | 204° |
| 2026-05-08 21:53 | 10.78642 | -64.01161 | 5447 ft | 171 kts | 204° |
| 2026-05-08 21:53 | 10.77492 | -64.01574 | 5496 ft | 178 kts | 204° |
| 2026-05-08 21:53 | 10.76307 | -64.01999 | 5503 ft | 184 kts | 204° |
| 2026-05-08 21:53 | 10.75084 | -64.02437 | 5503 ft | 188 kts | 203° |
| 2026-05-08 21:54 | 10.73840 | -64.02882 | 5502 ft | 191 kts | 203° |
| 2026-05-08 21:54 | 10.72593 | -64.03328 | 5502 ft | 193 kts | 203° |
| 2026-05-08 21:54 | 10.71309 | -64.03788 | 5501 ft | 194 kts | 203° |
| 2026-05-08 21:54 | 10.70049 | -64.04239 | 5501 ft | 195 kts | 203° |
| 2026-05-08 21:55 | 10.68773 | -64.04695 | 5500 ft | 195 kts | 203° |
| 2026-05-08 21:55 | 10.67491 | -64.05154 | 5500 ft | 195 kts | 203° |
| 2026-05-08 21:55 | 10.66207 | -64.05613 | 5500 ft | 196 kts | 203° |
| 2026-05-08 21:56 | 10.63640 | -64.06532 | 5500 ft | 196 kts | 203° |
| 2026-05-08 21:56 | 10.62356 | -64.06991 | 5500 ft | 196 kts | 203° |
| 2026-05-08 21:56 | 10.61071 | -64.07451 | 5498 ft | 196 kts | 203° |
| 2026-05-08 21:56 | 10.59752 | -64.07924 | 5239 ft | 206 kts | 202° |
| 2026-05-08 21:57 | 10.58398 | -64.08410 | 4868 ft | 210 kts | 202° |
| 2026-05-08 21:57 | 10.57030 | -64.08898 | 4493 ft | 208 kts | 201° |
| 2026-05-08 21:57 | 10.55679 | -64.09381 | 4071 ft | 208 kts | 200° |
| 2026-05-08 21:57 | 10.54295 | -64.09854 | 3561 ft | 209 kts | 193° |
| 2026-05-08 21:58 | 10.52859 | -64.10016 | 3074 ft | 208 kts | 182° |
| 2026-05-08 21:58 | 10.51407 | -64.10053 | 2574 ft | 207 kts | 182° |
| 2026-05-08 21:58 | 10.50061 | -64.10493 | 2087 ft | 204 kts | 212° |
| 2026-05-08 21:58 | 10.48942 | -64.11365 | 1630 ft | 201 kts | 221° |
| 2026-05-08 21:59 | 10.47955 | -64.12286 | 1527 ft | 183 kts | 225° |
| 2026-05-08 21:59 | 10.47187 | -64.13224 | 1536 ft | 160 kts | 233° |
| 2026-05-08 21:59 | 10.46571 | -64.14084 | 1492 ft | 144 kts | 234° |
| 2026-05-08 21:59 | 10.46015 | -64.14874 | 1477 ft | 133 kts | 234° |
| 2026-05-08 22:00 | 10.45461 | -64.15618 | 1428 ft | 131 kts | 232° |
| 2026-05-08 22:00 | 10.44899 | -64.16325 | 1488 ft | 124 kts | 230° |
| 2026-05-08 22:00 | 10.44303 | -64.16932 | 1490 ft | 124 kts | 222° |
| 2026-05-08 22:00 | 10.43633 | -64.17551 | 1500 ft | 122 kts | 222° |
| 2026-05-08 22:01 | 10.42969 | -64.17936 | 1449 ft | 112 kts | 188° |
| 2026-05-08 22:01 | 10.42321 | -64.17576 | 1215 ft | 115 kts | 119° |
| 2026-05-08 22:01 | 10.42226 | -64.16758 | 754 ft | 131 kts | 65° |
| 2026-05-08 22:01 | 10.42895 | -64.16280 | 705 ft | 109 kts | 30° |
| 2026-05-08 22:02 | 10.43497 | -64.15830 | 659 ft | 104 kts | 41° |
| 2026-05-08 22:02 | 10.43932 | -64.15233 | 447 ft | 110 kts | 62° |
| 2026-05-08 22:02 | 10.44287 | -64.14520 | 93 ft | 108 kts | 62° |
| 2026-05-08 22:02 | 10.44578 | -64.13942 | 20 ft | 73 kts | 63° |
| 2026-05-08 22:03 | 10.44740 | -64.13703 | 17 ft | 0 kts | 38° |
| 2026-05-08 22:03 | 10.44741 | -64.13702 | 16 ft | 2 kts | 20° |
| 2026-05-08 22:03 | 10.44740 | -64.13714 | 16 ft | 0 kts | 139° |
| 2026-05-08 22:03 | 10.44741 | -64.13714 | 16 ft | 0 kts | 137° |